Time;durP1;ratioP1;P1;durP2;ratioP2;P2;SDS_P1;SDS_P2;PMS_P1;PMS_P2;Temp;Humidity;BMP_temperature;BMP_pressure;BME280_temperature;BME280_humidity;BME280_pressure;Samples;Min_cycle;Max_cycle;Signal;HPM_P1;HPM_P2
2021/09/17 00:00:30;;;;;;;2.63;1.90;;;24.10;63.30;;;;;;5093320;28;20393;-64
2021/09/17 00:02:58;;;;;;;2.50;1.90;;;24.10;63.20;;;;;;5093555;28;20389;-65
2021/09/17 00:05:25;;;;;;;2.25;1.83;;;24.10;63.20;;;;;;5092750;28;20470;-65
2021/09/17 00:07:51;;;;;;;2.43;1.97;;;24.00;63.20;;;;;;5093100;28;20421;-68
2021/09/17 00:10:19;;;;;;;2.03;1.58;;;24.10;63.20;;;;;;5093195;28;20743;-67
2021/09/17 00:12:46;;;;;;;2.38;1.88;;;24.00;63.10;;;;;;5093178;28;20461;-64
2021/09/17 00:15:13;;;;;;;2.50;1.67;;;24.00;63.10;;;;;;5093014;28;20378;-64
2021/09/17 00:17:39;;;;;;;2.35;1.67;;;24.00;63.10;;;;;;5057875;28;20422;-64
2021/09/17 00:20:07;;;;;;;2.10;1.60;;;24.00;63.10;;;;;;5092983;28;20390;-64
2021/09/17 00:22:33;;;;;;;2.42;1.70;;;24.00;63.00;;;;;;5092923;28;20386;-63
2021/09/17 00:24:59;;;;;;;2.10;1.65;;;24.00;63.10;;;;;;5092990;28;20440;-66
2021/09/17 00:27:25;;;;;;;2.20;1.67;;;24.00;63.00;;;;;;5074394;28;20394;-64
2021/09/17 00:29:52;;;;;;;3.10;1.80;;;24.00;63.10;;;;;;5092935;28;20735;-64
2021/09/17 00:32:18;;;;;;;2.03;1.60;;;24.00;63.00;;;;;;5074403;28;20390;-64
2021/09/17 00:34:44;;;;;;;2.00;1.42;;;24.00;63.00;;;;;;5092339;28;20440;-69
2021/09/17 00:37:10;;;;;;;2.15;1.70;;;24.00;62.90;;;;;;5092197;28;20469;-64
2021/09/17 00:39:36;;;;;;;2.00;1.65;;;24.00;63.00;;;;;;5074207;28;20398;-70
2021/09/17 00:42:02;;;;;;;2.23;1.60;;;24.00;63.00;;;;;;5091868;28;20390;-71
2021/09/17 00:44:29;;;;;;;2.60;1.90;;;24.00;63.10;;;;;;5074513;28;20383;-71
2021/09/17 00:46:56;;;;;;;2.00;1.70;;;24.00;63.00;;;;;;5092486;28;20393;-71
2021/09/17 00:49:24;;;;;;;1.90;1.60;;;24.00;63.00;;;;;;5091901;28;20963;-67
2021/09/17 00:51:50;;;;;;;2.00;1.60;;;24.00;63.00;;;;;;5074255;28;20437;-69
2021/09/17 00:54:17;;;;;;;2.00;1.55;;;24.00;63.00;;;;;;5092524;28;20395;-67
2021/09/17 00:56:46;;;;;;;1.73;1.60;;;23.90;62.90;;;;;;5092353;28;20550;-70
2021/09/17 00:59:13;;;;;;;1.80;1.58;;;23.90;62.80;;;;;;5092126;28;20883;-65
2021/09/17 01:01:39;;;;;;;2.00;1.67;;;23.90;62.70;;;;;;5091989;28;20805;-71
2021/09/17 01:04:06;;;;;;;2.10;1.63;;;23.90;62.70;;;;;;5092301;28;20405;-67
2021/09/17 01:06:34;;;;;;;1.70;1.60;;;23.90;62.80;;;;;;5073426;28;20402;-72
2021/09/17 01:09:01;;;;;;;1.80;1.50;;;23.90;62.70;;;;;;5091916;28;20417;-64
2021/09/17 01:11:27;;;;;;;1.73;1.40;;;23.90;62.70;;;;;;5091509;28;20843;-69
2021/09/17 01:13:54;;;;;;;1.40;1.30;;;23.90;62.60;;;;;;5092176;28;20863;-72
2021/09/17 01:16:20;;;;;;;2.60;1.80;;;23.90;62.70;;;;;;5073617;28;20515;-68
2021/09/17 01:18:45;;;;;;;1.73;1.50;;;23.90;62.60;;;;;;5092002;28;20479;-67
2021/09/17 01:21:11;;;;;;;1.88;1.40;;;23.90;62.60;;;;;;5073672;28;20390;-67
2021/09/17 01:23:37;;;;;;;1.77;1.57;;;23.90;62.70;;;;;;5091565;28;20394;-65
2021/09/17 01:26:03;;;;;;;2.00;1.55;;;23.90;62.70;;;;;;5091888;28;20378;-71
2021/09/17 01:28:32;;;;;;;2.60;1.55;;;23.90;62.60;;;;;;5091796;28;20382;-66
2021/09/17 01:30:58;;;;;;;1.50;1.35;;;23.90;62.60;;;;;;5091846;28;20390;-66
2021/09/17 01:33:25;;;;;;;1.50;1.40;;;23.90;62.60;;;;;;5091488;28;20421;-71
2021/09/17 01:35:59;;;;;;;2.00;1.50;;;23.90;62.70;;;;;;5091836;28;20378;-70
2021/09/17 01:38:26;;;;;;;2.33;1.65;;;23.90;62.60;;;;;;5073516;28;20832;-66
2021/09/17 01:40:52;;;;;;;2.07;1.70;;;23.90;62.60;;;;;;5073613;28;20390;-69
2021/09/17 01:43:18;;;;;;;2.03;1.60;;;23.90;62.50;;;;;;5091535;28;20469;-69
2021/09/17 01:45:44;;;;;;;1.90;1.50;;;23.90;62.50;;;;;;5091402;28;20382;-68
2021/09/17 01:48:10;;;;;;;1.75;1.60;;;23.90;62.50;;;;;;5091505;28;20390;-70
2021/09/17 01:50:36;;;;;;;1.67;1.40;;;23.90;62.50;;;;;;5091601;28;20863;-69
2021/09/17 01:53:02;;;;;;;1.83;1.50;;;23.80;62.40;;;;;;5091509;28;20790;-68
2021/09/17 01:55:28;;;;;;;3.10;1.80;;;23.90;62.50;;;;;;5090812;28;20852;-68
2021/09/17 01:57:54;;;;;;;1.70;1.48;;;23.90;62.50;;;;;;5091116;28;20478;-70
2021/09/17 02:00:20;;;;;;;1.88;1.58;;;23.90;62.40;;;;;;5091901;28;20465;-68
2021/09/17 02:02:46;;;;;;;2.00;1.60;;;23.80;62.40;;;;;;5091634;28;20424;-66
2021/09/17 02:05:13;;;;;;;2.38;1.70;;;23.80;62.30;;;;;;5073281;28;20390;-68
2021/09/17 02:07:40;;;;;;;1.75;1.50;;;23.80;62.30;;;;;;5090523;28;20398;-69
2021/09/17 02:10:08;;;;;;;1.85;1.60;;;23.80;62.30;;;;;;5073322;28;20393;-70
2021/09/17 02:12:34;;;;;;;1.83;1.40;;;23.80;62.40;;;;;;5091320;28;21098;-71
2021/09/17 02:15:00;;;;;;;2.20;1.45;;;23.80;62.40;;;;;;5073484;28;20879;-68
2021/09/17 02:17:26;;;;;;;2.00;1.52;;;23.80;62.40;;;;;;5090613;28;20417;-69
2021/09/17 02:19:53;;;;;;;2.00;1.60;;;23.80;62.50;;;;;;5091272;28;20374;-69
2021/09/17 02:22:19;;;;;;;2.22;1.70;;;23.80;62.30;;;;;;5072649;28;20398;-68
2021/09/17 02:24:45;;;;;;;1.80;1.52;;;23.80;62.40;;;;;;5072661;28;20415;-70
2021/09/17 02:27:11;;;;;;;1.77;1.63;;;23.80;62.30;;;;;;5091040;28;20386;-68
2021/09/17 02:29:37;;;;;;;1.77;1.63;;;23.80;62.40;;;;;;5090674;28;20388;-70
2021/09/17 02:32:05;;;;;;;2.00;1.60;;;23.80;62.30;;;;;;5091139;28;20391;-70
2021/09/17 02:34:30;;;;;;;1.77;1.52;;;23.80;62.80;;;;;;5091020;28;20836;-72
2021/09/17 02:36:56;;;;;;;1.65;1.50;;;23.80;62.20;;;;;;5090778;28;20497;-71
2021/09/17 02:39:23;;;;;;;2.08;1.73;;;23.80;62.20;;;;;;5090759;28;20391;-70
2021/09/17 02:41:49;;;;;;;2.20;1.60;;;23.80;62.30;;;;;;5090947;28;20370;-70
2021/09/17 02:44:15;;;;;;;1.73;1.57;;;23.80;62.20;;;;;;5091034;28;20954;-68
2021/09/17 02:46:41;;;;;;;2.00;1.63;;;23.80;62.20;;;;;;5090687;28;20379;-65
2021/09/17 02:49:08;;;;;;;2.50;1.87;;;23.80;62.20;;;;;;5090882;28;20443;-65
2021/09/17 02:51:34;;;;;;;2.35;1.67;;;23.80;62.20;;;;;;5072501;28;20394;-67
2021/09/17 02:54:00;;;;;;;2.05;1.63;;;23.80;62.10;;;;;;5090601;28;20378;-68
2021/09/17 02:56:26;;;;;;;2.17;1.90;;;23.80;62.20;;;;;;5090755;28;20409;-67
2021/09/17 02:58:52;;;;;;;1.90;1.70;;;23.80;62.20;;;;;;5090983;28;20390;-71
2021/09/17 03:01:20;;;;;;;1.90;1.60;;;23.80;62.30;;;;;;5090652;28;20519;-71
2021/09/17 03:03:45;;;;;;;1.85;1.65;;;23.80;62.20;;;;;;5091346;28;20427;-72
2021/09/17 03:06:12;;;;;;;1.75;1.58;;;23.80;62.20;;;;;;5094024;28;20814;-69
2021/09/17 03:08:38;;;;;;;2.30;1.87;;;23.80;62.20;;;;;;5094535;28;20438;-70
2021/09/17 03:11:04;;;;;;;1.90;1.60;;;23.80;62.10;;;;;;5094303;28;20382;-65
2021/09/17 03:13:30;;;;;;;1.70;1.60;;;23.80;62.10;;;;;;5075777;28;20443;-68
2021/09/17 03:15:56;;;;;;;2.42;1.88;;;23.80;62.10;;;;;;5094128;28;20874;-67
2021/09/17 03:18:22;;;;;;;2.25;1.75;;;23.80;61.90;;;;;;5093976;28;20417;-69
2021/09/17 03:20:50;;;;;;;1.73;1.63;;;23.70;62.00;;;;;;5094232;28;20432;-68
2021/09/17 03:23:17;;;;;;;2.60;1.70;;;23.70;62.00;;;;;;5094326;28;20389;-66
2021/09/17 03:25:44;;;;;;;1.90;1.70;;;23.70;61.90;;;;;;5075737;28;20899;-68
2021/09/17 03:28:10;;;;;;;2.20;1.70;;;23.80;61.90;;;;;;5094046;28;20386;-64
2021/09/17 03:30:36;;;;;;;2.72;1.92;;;23.70;61.90;;;;;;5094029;28;20439;-64
2021/09/17 03:33:02;;;;;;;2.15;1.90;;;23.70;61.80;;;;;;5094079;28;20390;-68
2021/09/17 03:35:28;;;;;;;1.90;1.70;;;23.70;61.80;;;;;;5093551;28;20467;-64
2021/09/17 03:37:55;;;;;;;2.00;1.80;;;23.70;61.80;;;;;;5093383;28;20744;-64
2021/09/17 03:40:22;;;;;;;2.05;1.80;;;23.70;61.80;;;;;;5075468;28;20389;-64
2021/09/17 03:42:48;;;;;;;1.90;1.70;;;23.70;61.70;;;;;;5093872;28;20921;-70
2021/09/17 03:45:14;;;;;;;2.58;2.00;;;23.70;61.80;;;;;;5093638;28;20386;-67
2021/09/17 03:47:40;;;;;;;1.88;1.70;;;23.70;61.80;;;;;;5074960;28;20456;-71
2021/09/17 03:50:06;;;;;;;3.30;1.92;;;23.70;61.70;;;;;;5093615;28;20390;-69
2021/09/17 03:52:32;;;;;;;1.90;1.70;;;23.70;61.80;;;;;;5093813;28;20488;-71
2021/09/17 03:54:58;;;;;;;1.90;1.55;;;23.70;61.80;;;;;;5093614;28;20382;-69
2021/09/17 03:57:27;;;;;;;2.30;1.90;;;23.70;61.70;;;;;;5093228;28;20406;-71
2021/09/17 03:59:53;;;;;;;2.83;2.00;;;23.70;61.70;;;;;;5093382;28;20389;-71
2021/09/17 04:02:20;;;;;;;2.40;2.20;;;23.70;61.80;;;;;;5093409;28;20378;-68
2021/09/17 04:04:46;;;;;;;2.30;1.95;;;23.70;61.60;;;;;;5075255;28;20404;-68
2021/09/17 04:07:12;;;;;;;2.20;2.00;;;23.70;61.80;;;;;;5092874;28;20683;-64
2021/09/17 04:09:38;;;;;;;2.42;1.92;;;23.70;61.70;;;;;;5092857;28;20431;-72
2021/09/17 04:12:04;;;;;;;2.10;1.90;;;23.70;61.70;;;;;;5093323;28;20390;-72
2021/09/17 04:14:30;;;;;;;2.37;1.90;;;23.70;61.70;;;;;;5092883;28;20382;-71
2021/09/17 04:16:56;;;;;;;2.20;1.98;;;23.60;61.50;;;;;;5092619;28;20418;-68
2021/09/17 04:19:22;;;;;;;2.92;2.22;;;23.70;61.60;;;;;;5092719;28;20460;-67
2021/09/17 04:21:48;;;;;;;2.30;2.10;;;23.70;61.50;;;;;;5092602;28;20394;-68
2021/09/17 04:24:13;;;;;;;2.15;1.95;;;23.70;61.60;;;;;;5092934;28;20469;-69
2021/09/17 04:26:39;;;;;;;2.20;1.80;;;23.70;61.50;;;;;;5093062;28;20421;-71
2021/09/17 04:29:05;;;;;;;2.50;2.20;;;23.70;61.70;;;;;;5092909;28;20786;-71
2021/09/17 04:31:32;;;;;;;2.30;2.10;;;23.70;62.10;;;;;;5092677;28;20734;-65
2021/09/17 04:33:59;;;;;;;2.50;2.00;;;23.70;61.60;;;;;;5075174;28;20390;-69
2021/09/17 04:36:24;;;;;;;2.08;1.88;;;23.70;61.60;;;;;;5092085;28;20438;-70
2021/09/17 04:38:51;;;;;;;2.22;2.03;;;23.70;61.60;;;;;;5091649;28;20421;-67
2021/09/17 04:41:17;;;;;;;2.40;2.03;;;23.70;61.50;;;;;;5092073;28;20863;-71
2021/09/17 04:43:44;;;;;;;3.13;2.30;;;23.70;61.60;;;;;;5091493;28;20402;-72
2021/09/17 04:46:10;;;;;;;2.13;1.90;;;23.70;61.50;;;;;;5092117;28;20411;-67
2021/09/17 04:48:36;;;;;;;2.22;2.03;;;23.60;61.40;;;;;;5105501;28;20392;-66
2021/09/17 04:51:02;;;;;;;2.30;2.10;;;23.70;61.40;;;;;;5113034;28;20387;-64
2021/09/17 04:53:27;;;;;;;2.30;2.10;;;23.60;61.30;;;;;;5112198;28;20445;-70
2021/09/17 04:55:53;;;;;;;2.43;2.20;;;23.60;61.40;;;;;;5112463;28;20418;-70
2021/09/17 04:58:19;;;;;;;2.90;2.07;;;23.60;61.70;;;;;;5112369;28;20802;-70
2021/09/17 05:00:44;;;;;;;2.67;2.35;;;23.60;62.00;;;;;;5112692;28;20380;-71
2021/09/17 05:03:10;;;;;;;2.97;1.90;;;23.60;61.40;;;;;;5112547;28;20381;-68
2021/09/17 05:05:36;;;;;;;3.67;2.25;;;23.60;61.40;;;;;;5111751;28;20381;-68
2021/09/17 05:08:01;;;;;;;4.35;2.30;;;23.60;61.40;;;;;;5112215;28;20446;-66
2021/09/17 05:10:27;;;;;;;2.80;2.20;;;23.60;61.50;;;;;;5112421;28;20381;-71
2021/09/17 05:12:53;;;;;;;4.87;2.50;;;23.60;61.50;;;;;;5112432;28;20923;-71
2021/09/17 05:15:19;;;;;;;3.40;2.33;;;23.60;61.50;;;;;;5112340;28;20387;-66
2021/09/17 05:17:45;;;;;;;3.27;2.37;;;23.60;61.50;;;;;;5111775;28;20408;-71
2021/09/17 05:20:12;;;;;;;5.78;2.30;;;23.60;61.50;;;;;;5112225;28;20387;-68
2021/09/17 05:22:38;;;;;;;5.13;2.38;;;23.60;61.60;;;;;;5112259;28;20376;-69
2021/09/17 05:25:04;;;;;;;3.43;2.40;;;23.60;61.50;;;;;;5112405;28;20793;-68
2021/09/17 05:27:29;;;;;;;5.22;2.40;;;23.60;61.60;;;;;;5111330;28;20407;-64
2021/09/17 05:29:55;;;;;;;3.53;1.90;;;23.60;61.50;;;;;;5112208;28;20869;-71
2021/09/17 05:32:21;;;;;;;3.65;2.10;;;23.60;61.40;;;;;;5112206;28;20511;-69
2021/09/17 05:34:47;;;;;;;4.10;2.07;;;23.60;61.50;;;;;;5112134;28;20888;-70
2021/09/17 05:37:13;;;;;;;2.63;2.05;;;23.60;61.50;;;;;;5111922;28;20408;-68
2021/09/17 05:39:39;;;;;;;3.20;2.20;;;23.60;61.40;;;;;;5111584;28;20429;-69
2021/09/17 05:42:05;;;;;;;2.93;2.10;;;23.60;61.30;;;;;;5111988;28;20872;-71
2021/09/17 05:44:30;;;;;;;2.80;2.20;;;23.60;61.40;;;;;;5112086;28;20987;-71
2021/09/17 05:46:56;;;;;;;3.70;2.10;;;23.60;61.20;;;;;;5112032;28;20392;-71
2021/09/17 05:49:22;;;;;;;6.47;2.97;;;23.60;61.00;;;;;;5111753;28;20496;-72
2021/09/17 05:51:47;;;;;;;4.03;3.50;;;23.60;60.80;;;;;;5111456;28;20421;-72
2021/09/17 05:54:13;;;;;;;5.05;3.70;;;23.60;61.30;;;;;;5112147;28;20396;-70
2021/09/17 05:56:39;;;;;;;5.20;3.47;;;23.60;61.10;;;;;;5111801;28;20444;-71
2021/09/17 05:59:05;;;;;;;5.70;3.17;;;23.60;61.20;;;;;;5111746;28;20385;-71
2021/09/17 06:01:30;;;;;;;3.57;2.87;;;23.60;61.10;;;;;;5111616;28;20471;-72
2021/09/17 06:03:56;;;;;;;5.35;3.03;;;23.60;61.20;;;;;;5112311;28;20384;-71
2021/09/17 06:06:22;;;;;;;5.47;3.17;;;23.60;61.20;;;;;;5112107;28;20418;-70
2021/09/17 06:08:50;;;;;;;5.78;3.78;;;23.60;61.20;;;;;;5111238;28;20437;-70
2021/09/17 06:11:16;;;;;;;6.07;4.28;;;23.60;60.80;;;;;;5111092;28;20390;-70
2021/09/17 06:13:42;;;;;;;6.55;4.53;;;23.60;60.10;;;;;;5111227;28;20381;-70
2021/09/17 06:16:08;;;;;;;5.37;4.00;;;23.50;59.50;;;;;;5111326;28;20395;-70
2021/09/17 06:18:33;;;;;;;6.07;4.50;;;23.50;59.70;;;;;;5111555;28;20394;-70
2021/09/17 06:20:59;;;;;;;6.10;4.73;;;23.50;59.30;;;;;;5111333;28;20784;-70
2021/09/17 06:23:26;;;;;;;5.97;4.35;;;23.50;59.40;;;;;;5111576;28;20994;-70
2021/09/17 06:25:53;;;;;;;7.32;4.60;;;23.50;59.30;;;;;;5111382;28;20432;-70
2021/09/17 06:28:19;;;;;;;5.07;4.07;;;23.50;58.90;;;;;;5111465;28;20787;-71
2021/09/17 06:30:44;;;;;;;6.13;4.43;;;23.50;59.10;;;;;;5111551;28;20475;-70
2021/09/17 06:33:10;;;;;;;6.95;4.40;;;23.50;59.30;;;;;;5112020;28;20386;-71
2021/09/17 06:35:36;;;;;;;6.10;4.33;;;23.50;59.30;;;;;;5110699;28;20750;-72
2021/09/17 06:38:02;;;;;;;5.30;4.03;;;23.40;59.10;;;;;;5111305;28;20408;-72
2021/09/17 06:40:28;;;;;;;6.35;4.60;;;23.40;59.30;;;;;;5115377;28;20887;-72
2021/09/17 06:42:55;;;;;;;6.00;4.20;;;23.40;59.30;;;;;;5115387;28;20411;-72
2021/09/17 06:45:21;;;;;;;5.68;3.85;;;23.40;59.10;;;;;;5115305;28;20384;-71
2021/09/17 06:47:53;;;;;;;6.03;4.28;;;23.40;59.20;;;;;;5115002;28;20392;-71
2021/09/17 06:50:21;;;;;;;6.97;4.25;;;23.30;59.20;;;;;;5115121;28;20389;-72
2021/09/17 06:52:47;;;;;;;5.40;4.15;;;23.40;59.30;;;;;;5115152;28;20445;-72
2021/09/17 06:55:19;;;;;;;4.60;3.60;;;23.30;59.10;;;;;;5114286;28;20380;-69
2021/09/17 06:57:50;;;;;;;6.70;3.33;;;23.30;59.10;;;;;;5114482;28;20408;-71
2021/09/17 07:00:17;;;;;;;4.25;3.50;;;23.30;59.30;;;;;;5115018;28;20377;-70
2021/09/17 07:02:43;;;;;;;3.95;3.08;;;23.40;59.40;;;;;;5114966;28;20471;-71
2021/09/17 07:05:09;;;;;;;5.63;3.97;;;23.40;59.20;;;;;;5114941;28;20874;-71
2021/09/17 07:07:35;;;;;;;6.70;3.63;;;23.40;59.20;;;;;;5114224;28;20788;-71
2021/09/17 07:10:02;;;;;;;4.67;3.30;;;23.40;60.20;;;;;;5114681;28;20381;-70
2021/09/17 07:12:34;;;;;;;5.23;3.37;;;23.40;60.00;;;;;;5114787;28;20380;-70
2021/09/17 07:15:00;;;;;;;5.20;3.40;;;23.40;60.00;;;;;;5096536;28;20389;-67
2021/09/17 07:17:25;;;;;;;4.93;2.97;;;23.40;59.80;;;;;;5114619;28;20814;-71
2021/09/17 07:19:51;;;;;;;3.40;2.92;;;23.40;59.60;;;;;;5114238;28;20861;-70
2021/09/17 07:22:17;;;;;;;3.97;2.88;;;23.40;59.80;;;;;;5096245;28;20392;-70
2021/09/17 07:24:42;;;;;;;3.53;2.58;;;23.40;59.20;;;;;;5114083;28;20475;-69
2021/09/17 07:27:08;;;;;;;3.22;2.70;;;23.40;59.30;;;;;;5114034;28;20396;-67
2021/09/17 07:29:34;;;;;;;4.67;2.93;;;23.40;59.10;;;;;;5114129;28;20862;-70
2021/09/17 07:32:00;;;;;;;4.60;2.85;;;23.40;59.00;;;;;;5114314;28;20396;-71
2021/09/17 07:34:26;;;;;;;4.03;3.10;;;23.40;59.50;;;;;;5114357;28;20395;-71
2021/09/17 07:36:52;;;;;;;5.03;3.72;;;23.40;59.50;;;;;;5114108;28;20408;-71
2021/09/17 07:39:17;;;;;;;4.83;3.53;;;23.40;59.70;;;;;;5114189;28;20391;-72
2021/09/17 07:41:43;;;;;;;4.87;3.80;;;23.40;59.50;;;;;;5113777;28;20485;-72
2021/09/17 07:44:09;;;;;;;7.40;3.65;;;23.40;59.50;;;;;;5114015;28;20396;-71
2021/09/17 07:46:34;;;;;;;5.40;3.40;;;23.30;59.40;;;;;;5114175;28;20377;-66
2021/09/17 07:49:00;;;;;;;5.13;3.10;;;23.30;59.30;;;;;;5095768;28;20389;-71
2021/09/17 07:51:25;;;;;;;5.47;3.55;;;23.40;59.20;;;;;;5095470;28;20437;-71
2021/09/17 07:53:51;;;;;;;4.33;3.37;;;23.30;59.10;;;;;;5113322;28;20441;-71
2021/09/17 07:56:17;;;;;;;4.25;3.45;;;23.30;58.90;;;;;;5113644;28;20381;-71
2021/09/17 07:58:42;;;;;;;4.20;3.30;;;23.30;58.70;;;;;;5113779;28;20431;-71
2021/09/17 08:01:08;;;;;;;4.15;3.40;;;23.30;58.60;;;;;;5113878;28;20387;-71
2021/09/17 08:03:34;;;;;;;4.45;3.10;;;23.30;58.60;;;;;;5113438;28;20395;-71
2021/09/17 08:05:59;;;;;;;4.37;3.33;;;23.30;58.30;;;;;;5095275;28;20392;-71
2021/09/17 08:08:26;;;;;;;5.35;3.30;;;23.20;58.30;;;;;;5113371;28;20397;-71
2021/09/17 08:10:52;;;;;;;5.10;3.30;;;23.20;58.20;;;;;;5113725;28;20387;-71
2021/09/17 08:13:18;;;;;;;4.65;3.10;;;23.20;58.50;;;;;;5113266;28;20479;-71
2021/09/17 08:15:43;;;;;;;5.30;3.30;;;23.30;58.60;;;;;;5113107;28;20810;-71
2021/09/17 08:18:09;;;;;;;6.15;2.92;;;23.20;58.50;;;;;;5113340;28;20484;-72
2021/09/17 08:20:37;;;;;;;4.60;3.20;;;23.20;58.50;;;;;;5113507;28;20383;-70
2021/09/17 08:23:03;;;;;;;4.32;3.30;;;23.20;58.60;;;;;;5113374;28;20388;-72
2021/09/17 08:25:29;;;;;;;5.22;3.15;;;23.20;58.70;;;;;;5113423;28;20388;-71
2021/09/17 08:27:54;;;;;;;4.15;3.00;;;23.20;58.30;;;;;;5094614;28;20393;-71
2021/09/17 08:30:20;;;;;;;4.90;3.15;;;23.30;58.80;;;;;;5113331;28;20918;-71
2021/09/17 08:32:46;;;;;;;5.45;3.35;;;23.30;58.90;;;;;;5113248;28;20400;-71
2021/09/17 08:35:13;;;;;;;4.63;3.05;;;23.30;58.60;;;;;;5113258;28;20381;-70
2021/09/17 08:37:40;;;;;;;3.60;2.53;;;23.30;58.60;;;;;;5112741;28;20789;-71
2021/09/17 08:40:07;;;;;;;4.77;2.73;;;23.30;58.60;;;;;;5112607;28;20466;-70
2021/09/17 08:42:33;;;;;;;4.20;2.70;;;23.40;58.70;;;;;;5112680;28;20419;-71
2021/09/17 08:44:59;;;;;;;4.13;2.65;;;23.40;58.60;;;;;;5113004;28;20866;-70
2021/09/17 08:47:25;;;;;;;5.20;2.72;;;23.40;58.70;;;;;;5112838;28;20395;-71
2021/09/17 08:49:50;;;;;;;3.55;2.47;;;23.40;58.60;;;;;;5112148;28;20811;-68
2021/09/17 08:52:16;;;;;;;5.47;2.83;;;23.50;58.70;;;;;;5112797;28;20481;-69
2021/09/17 08:54:42;;;;;;;4.23;2.37;;;23.50;58.80;;;;;;5112999;28;20420;-71
2021/09/17 08:57:08;;;;;;;3.15;2.20;;;23.50;58.20;;;;;;5112605;28;20877;-65
2021/09/17 08:59:34;;;;;;;4.53;2.50;;;23.50;58.30;;;;;;5112541;28;20715;-70
2021/09/17 09:02:21;;;;;;;2.83;2.22;;;23.40;58.90;;;;;;5111871;28;20376;-65
2021/09/17 09:05:03;;;;;;;4.10;2.20;;;23.50;59.20;;;;;;5112586;28;20391;-68
2021/09/17 09:07:35;;;;;;;3.30;2.00;;;23.50;59.00;;;;;;5112355;28;20481;-70
2021/09/17 09:10:11;;;;;;;3.17;2.20;;;23.50;58.90;;;;;;5111492;28;20387;-65
2021/09/17 09:12:47;;;;;;;4.18;2.40;;;23.50;58.70;;;;;;5112408;28;20381;-71
2021/09/17 09:15:16;;;;;;;9.23;2.47;;;23.40;58.20;;;;;;5112382;28;20381;-71
2021/09/17 09:17:44;;;;;;;6.47;2.80;;;23.40;58.70;;;;;;5111779;28;20496;-70
2021/09/17 09:20:24;;;;;;;5.38;2.30;;;23.50;59.10;;;;;;5112280;28;20387;-71
2021/09/17 09:23:19;;;;;;;8.05;2.60;;;23.50;59.20;;;;;;5094176;28;20481;-71
2021/09/17 09:26:05;;;;;;;8.20;2.70;;;23.50;60.90;;;;;;5112173;28;20381;-71
2021/09/17 09:28:35;;;;;;;5.10;2.40;;;23.60;59.60;;;;;;5112206;28;20437;-70
2021/09/17 09:31:12;;;;;;;3.90;2.20;;;23.60;59.30;;;;;;5112161;28;20387;-70
2021/09/17 09:33:39;;;;;;;2.95;2.10;;;23.60;59.00;;;;;;5111855;28;20441;-70
2021/09/17 09:36:10;;;;;;;3.88;2.35;;;23.60;58.70;;;;;;5093528;28;20384;-70
2021/09/17 09:38:41;;;;;;;5.03;2.70;;;23.60;58.40;;;;;;5112002;28;20405;-70
2021/09/17 09:41:14;;;;;;;3.88;2.80;;;23.60;58.20;;;;;;5111947;28;20887;-71
2021/09/17 09:44:02;;;;;;;6.43;2.42;;;23.70;58.30;;;;;;5111858;28;20491;-71
2021/09/17 09:46:34;;;;;;;4.45;2.50;;;23.70;58.20;;;;;;5111235;28;20442;-71
2021/09/17 09:49:26;;;;;;;3.63;2.50;;;23.70;58.10;;;;;;5111928;28;20419;-70
2021/09/17 09:52:06;;;;;;;3.75;2.40;;;23.70;58.20;;;;;;5107096;28;20384;-70
2021/09/17 09:54:35;;;;;;;4.32;2.80;;;23.60;57.60;;;;;;5111547;28;20951;-71
2021/09/17 09:57:02;;;;;;;3.80;2.20;;;23.60;58.10;;;;;;5111188;28;20412;-70
2021/09/17 09:59:30;;;;;;;3.78;2.38;;;23.60;58.20;;;;;;5093505;28;20492;-71
2021/09/17 10:01:59;;;;;;;3.10;2.10;;;23.60;57.80;;;;;;5111342;28;20385;-70
2021/09/17 10:04:27;;;;;;;4.18;2.15;;;23.60;57.80;;;;;;5111702;28;20475;-71
2021/09/17 10:07:09;;;;;;;3.42;2.17;;;23.60;57.50;;;;;;5111627;28;20400;-70
2021/09/17 10:09:37;;;;;;;3.33;2.03;;;23.60;57.30;;;;;;5111278;28;20395;-71
2021/09/17 10:12:04;;;;;;;3.40;1.63;;;23.60;56.30;;;;;;5111389;28;20475;-65
2021/09/17 10:14:30;;;;;;;4.35;1.88;;;23.50;56.30;;;;;;5115320;28;20783;-71
2021/09/17 10:17:02;;;;;;;3.27;1.70;;;23.50;56.30;;;;;;5097150;28;20503;-71
2021/09/17 10:19:28;;;;;;;3.78;2.10;;;23.60;57.10;;;;;;5115743;28;20380;-71
2021/09/17 10:21:59;;;;;;;3.83;2.00;;;23.60;56.80;;;;;;5115496;28;20392;-70
2021/09/17 10:24:27;;;;;;;3.50;1.97;;;23.60;56.80;;;;;;5097372;28;20380;-70
2021/09/17 10:26:58;;;;;;;5.13;2.10;;;23.60;56.50;;;;;;5115724;28;20380;-71
2021/09/17 10:29:42;;;;;;;4.77;1.80;;;23.70;56.50;;;;;;5097383;28;20434;-70
2021/09/17 10:32:26;;;;;;;3.35;1.98;;;23.70;56.80;;;;;;5097228;28;20388;-71
2021/09/17 10:35:10;;;;;;;3.22;1.80;;;23.70;57.60;;;;;;5115601;28;20384;-71
2021/09/17 10:37:48;;;;;;;4.95;1.90;;;23.70;57.10;;;;;;5115455;28;20507;-71
2021/09/17 10:40:14;;;;;;;6.45;2.20;;;23.60;57.10;;;;;;5115435;28;20392;-71
2021/09/17 10:43:08;;;;;;;4.10;1.80;;;23.70;57.70;;;;;;5115375;28;20455;-65
2021/09/17 10:45:47;;;;;;;4.47;1.90;;;23.70;57.80;;;;;;5115180;28;20953;-70
2021/09/17 10:48:17;;;;;;;3.67;1.95;;;23.70;57.30;;;;;;5115246;28;20454;-70
2021/09/17 10:50:45;;;;;;;4.75;2.00;;;23.70;57.70;;;;;;5115340;28;20407;-70
2021/09/17 10:53:12;;;;;;;2.97;1.70;;;23.70;57.50;;;;;;5115194;28;20413;-71
2021/09/17 10:55:44;;;;;;;5.38;1.70;;;23.70;57.30;;;;;;5114894;28;20403;-69
2021/09/17 10:58:29;;;;;;;3.63;1.70;;;23.70;57.60;;;;;;5114959;28;20415;-70
2021/09/17 11:01:02;;;;;;;3.45;1.60;;;23.70;57.40;;;;;;5115124;28;20411;-70
2021/09/17 11:03:46;;;;;;;3.53;1.60;;;23.70;57.00;;;;;;5115054;28;20481;-70
2021/09/17 11:06:26;;;;;;;4.90;1.70;;;23.80;57.50;;;;;;5103717;28;20389;-70
2021/09/17 11:09:00;;;;;;;3.47;1.55;;;23.70;57.10;;;;;;5094646;28;20394;-71
2021/09/17 11:11:29;;;;;;;3.63;1.63;;;23.70;55.20;;;;;;5094030;28;20390;-70
2021/09/17 11:14:00;;;;;;;2.65;1.50;;;23.70;54.30;;;;;;5093795;28;20531;-71
2021/09/17 11:16:27;;;;;;;2.17;1.40;;;23.70;54.30;;;;;;5093985;28;20394;-71
2021/09/17 11:19:00;;;;;;;3.88;1.30;;;23.70;54.30;;;;;;5094237;28;20406;-71
2021/09/17 11:21:31;;;;;;;3.88;1.40;;;23.70;54.00;;;;;;5094346;28;20413;-71
2021/09/17 11:23:58;;;;;;;3.58;1.58;;;23.60;53.90;;;;;;5092751;28;20382;-70
2021/09/17 11:26:32;;;;;;;2.55;1.30;;;23.60;53.90;;;;;;5093648;28;20875;-70
2021/09/17 11:29:09;;;;;;;3.47;1.50;;;23.70;54.60;;;;;;5094289;28;20386;-69
2021/09/17 11:31:46;;;;;;;3.45;1.40;;;23.60;54.70;;;;;;5094127;28;20390;-71
2021/09/17 11:34:14;;;;;;;2.15;1.33;;;23.60;54.90;;;;;;5093955;28;20451;-71
2021/09/17 11:36:47;;;;;;;1.90;1.20;;;23.70;55.10;;;;;;5094012;28;20405;-70
2021/09/17 11:39:21;;;;;;;3.05;1.50;;;23.70;55.30;;;;;;5093932;28;20543;-70
2021/09/17 11:41:54;;;;;;;4.28;1.33;;;23.70;55.50;;;;;;5093466;28;20390;-70
2021/09/17 11:44:34;;;;;;;2.38;1.15;;;23.70;55.40;;;;;;5093830;28;20966;-71
2021/09/17 11:47:03;;;;;;;3.65;1.25;;;23.70;55.40;;;;;;5093776;28;20748;-70
2021/09/17 11:49:32;;;;;;;2.75;1.40;;;23.70;55.60;;;;;;5093745;28;20401;-71
2021/09/17 11:52:06;;;;;;;2.90;1.30;;;23.70;55.70;;;;;;5093135;28;20382;-71
2021/09/17 11:54:33;;;;;;;3.47;1.60;;;23.70;56.00;;;;;;5093614;28;20390;-70
2021/09/17 11:57:08;;;;;;;2.40;1.40;;;23.70;55.90;;;;;;5093503;28;20933;-70
2021/09/17 11:59:46;;;;;;;2.40;1.40;;;23.70;55.90;;;;;;5093706;28;20852;-71
2021/09/17 12:02:21;;;;;;;2.20;1.20;;;23.70;55.70;;;;;;5091205;28;20912;-68
2021/09/17 12:04:58;;;;;;;4.32;1.40;;;23.70;55.40;;;;;;5093323;28;20926;-71
2021/09/17 12:07:26;;;;;;;1.90;1.40;;;23.70;54.50;;;;;;5090648;28;20398;-72
2021/09/17 12:09:53;;;;;;;2.60;1.33;;;23.70;54.90;;;;;;5092892;28;20987;-71
2021/09/17 12:12:24;;;;;;;2.42;1.30;;;23.70;54.70;;;;;;5093033;28;20388;-72
2021/09/17 12:14:57;;;;;;;2.70;1.20;;;23.60;53.80;;;;;;5093231;28;20716;-71
2021/09/17 12:17:23;;;;;;;2.35;1.20;;;23.70;53.20;;;;;;5074712;28;20463;-71
2021/09/17 12:19:56;;;;;;;1.73;1.38;;;23.70;53.30;;;;;;5074325;28;20402;-70
2021/09/17 12:22:36;;;;;;;2.20;1.25;;;23.70;53.80;;;;;;5092431;28;20414;-70
2021/09/17 12:25:10;;;;;;;2.60;1.20;;;23.70;53.80;;;;;;5092829;28;20774;-70
2021/09/17 12:27:38;;;;;;;2.67;1.20;;;23.70;53.70;;;;;;5092893;28;20716;-70
2021/09/17 12:30:07;;;;;;;1.70;1.25;;;23.60;53.80;;;;;;5091929;28;20393;-70
2021/09/17 12:32:34;;;;;;;2.05;1.35;;;23.60;53.00;;;;;;5092976;28;20378;-70
2021/09/17 12:35:13;;;;;;;2.90;1.20;;;23.60;53.10;;;;;;5095403;28;20393;-70
2021/09/17 12:37:42;;;;;;;2.10;1.23;;;23.60;53.30;;;;;;5088601;28;20975;-69
2021/09/17 12:40:20;;;;;;;5.28;1.27;;;23.60;52.70;;;;;;5091085;28;21295;-68
2021/09/17 12:43:11;;;;;;;4.05;1.45;;;23.60;52.60;;;;;;5091646;28;20393;-67
2021/09/17 12:45:41;;;;;;;2.65;1.27;;;23.60;52.50;;;;;;5089312;28;20414;-70
2021/09/17 12:48:10;;;;;;;1.67;1.10;;;23.60;53.10;;;;;;5073495;28;20423;-67
2021/09/17 12:50:44;;;;;;;2.55;1.20;;;23.60;53.10;;;;;;5072953;28;20382;-67
2021/09/17 12:53:20;;;;;;;3.58;1.20;;;23.60;52.80;;;;;;5091117;28;20389;-69